createdAt,value
2022-10-01T00:01:45.482Z,72.94
2022-10-01T00:11:47.678Z,73.56
2022-10-01T00:21:49.850Z,74.68
2022-10-01T00:31:52.061Z,73.70
2022-10-01T00:41:54.805Z,73.22
2022-10-01T00:52:02.368Z,73.65
2022-10-01T01:02:04.767Z,73.43
2022-10-01T01:12:25.858Z,72.51
2022-10-01T01:22:33.702Z,72.42
2022-10-01T01:32:48.129Z,74.65
2022-10-01T01:42:51.663Z,73.71
2022-10-01T01:52:54.528Z,74.26
2022-10-01T02:02:57.931Z,74.01
2022-10-01T02:13:22.326Z,75.13
2022-10-01T02:23:30.312Z,74.49
2022-10-01T02:33:36.357Z,74.99
2022-10-01T02:43:54.480Z,75.20
2022-10-01T02:54:03.379Z,73.22
2022-10-01T03:04:05.495Z,74.55
2022-10-01T03:14:07.720Z,73.45
2022-10-01T03:24:10.051Z,73.84
2022-10-01T03:34:13.481Z,73.36
2022-10-01T03:44:15.699Z,75.11
2022-10-01T03:54:18.129Z,74.96
2022-10-01T04:04:20.453Z,75.43
2022-10-01T04:14:22.552Z,74.58
2022-10-01T04:24:24.643Z,75.43
2022-10-01T04:34:46.787Z,74.52
2022-10-01T04:44:48.911Z,74.89
2022-10-01T04:54:52.471Z,73.76
2022-10-01T05:04:54.695Z,74.39
2022-10-01T05:14:57.163Z,74.93
2022-10-01T05:25:00.471Z,75.66
2022-10-01T05:35:03.462Z,76.53
2022-10-01T05:45:05.979Z,76.69
2022-10-01T05:55:08.617Z,76.15
2022-10-01T06:05:10.694Z,78.03
2022-10-01T06:15:13.432Z,79.71
2022-10-01T06:25:15.797Z,80.41
2022-10-01T06:35:17.991Z,79.45
2022-10-01T06:45:20.150Z,77.96
2022-10-01T06:55:26.347Z,77.56
2022-10-01T07:05:28.523Z,78.10
2022-10-01T07:15:31.391Z,79.64
2022-10-01T07:25:33.614Z,81.14
2022-10-01T07:35:38.289Z,80.15
2022-10-01T07:45:40.491Z,79.94
2022-10-01T07:55:42.864Z,78.88
2022-10-01T08:05:46.577Z,73.73
2022-10-01T08:15:53.760Z,72.97
2022-10-01T08:26:09.137Z,73.55
2022-10-01T08:36:11.408Z,72.53
2022-10-01T08:46:18.276Z,69.14
2022-10-01T08:56:37.685Z,67.94
2022-10-01T09:06:40.136Z,63.47
2022-10-01T09:16:54.474Z,63.54
2022-10-01T09:26:57.145Z,60.52
2022-10-01T09:37:28.065Z,59.86
2022-10-01T09:47:33.113Z,61.31
2022-10-01T09:57:43.398Z,60.17
2022-10-01T10:08:30.123Z,59.06
2022-10-01T10:18:35.728Z,59.50
2022-10-01T10:28:44.617Z,59.55
2022-10-01T10:38:53.838Z,57.01
2022-10-01T10:49:04.899Z,57.04
2022-10-01T10:59:10.223Z,53.85
2022-10-01T11:09:18.702Z,54.88
2022-10-01T11:19:29.777Z,54.82
2022-10-01T11:29:50.819Z,53.27
2022-10-01T11:39:56.288Z,53.36
2022-10-01T11:50:13.515Z,49.96
2022-10-01T12:00:16.084Z,51.82
2022-10-01T12:10:18.152Z,51.92
2022-10-01T12:20:30.143Z,51.42
2022-10-01T12:30:42.051Z,49.14
2022-10-01T12:40:56.458Z,48.77
2022-10-01T12:51:33.517Z,52.02
2022-10-01T13:02:12.827Z,56.46
2022-10-01T13:13:02.485Z,60.20
2022-10-01T13:23:11.686Z,62.53
2022-10-01T13:33:24.120Z,64.22
2022-10-01T13:43:26.352Z,66.01
2022-10-01T13:53:30.225Z,63.50
2022-10-01T14:03:34.581Z,65.26
2022-10-01T14:14:04.524Z,65.79
2022-10-01T14:24:24.684Z,67.10
2022-10-01T14:34:42.496Z,69.20
2022-10-01T14:44:47.076Z,68.66
2022-10-01T14:54:58.565Z,69.06
2022-10-01T15:05:00.815Z,69.29
2022-10-01T15:15:03.088Z,68.93
2022-10-01T15:25:05.829Z,68.78
2022-10-01T15:35:13.464Z,69.09
2022-10-01T15:45:26.055Z,69.75
2022-10-01T15:55:42.353Z,70.97
2022-10-01T16:05:48.939Z,71.52
2022-10-01T16:16:19.061Z,70.51
2022-10-01T16:26:29.329Z,71.64
2022-10-01T16:36:34.476Z,71.58
2022-10-01T16:46:36.830Z,71.48
2022-10-01T16:56:41.501Z,72.15
2022-10-01T17:06:43.876Z,71.86
2022-10-01T17:16:46.136Z,72.14
2022-10-01T17:26:48.452Z,71.48
2022-10-01T17:36:50.740Z,72.00
2022-10-01T17:46:52.819Z,71.54
2022-10-01T17:56:55.481Z,72.52
2022-10-01T18:06:59.834Z,72.16
2022-10-01T18:17:02.113Z,72.11
2022-10-01T18:27:04.197Z,72.75
2022-10-01T18:37:07.360Z,71.46
2022-10-01T18:47:17.852Z,71.34
2022-10-01T18:57:30.511Z,70.90
2022-10-01T19:07:50.991Z,72.45
2022-10-01T19:18:02.162Z,71.37
2022-10-01T19:28:15.729Z,71.11
2022-10-01T19:38:34.987Z,70.53
2022-10-01T19:48:49.089Z,70.40
2022-10-01T19:58:51.170Z,70.65
2022-10-01T20:09:20.761Z,70.70
2022-10-01T20:19:49.530Z,70.87
2022-10-01T20:29:54.549Z,70.12
2022-10-01T20:40:19.009Z,70.51
2022-10-01T20:50:26.543Z,69.89
2022-10-01T21:00:31.245Z,69.57
2022-10-01T21:10:45.151Z,69.86
2022-10-01T21:20:57.733Z,69.04
2022-10-01T21:31:08.579Z,69.86
2022-10-01T21:41:16.398Z,69.45
2022-10-01T21:51:35.923Z,68.57
2022-10-01T22:02:10.722Z,68.69
2022-10-01T22:12:13.005Z,68.56
2022-10-01T22:22:25.870Z,68.39
2022-10-01T22:32:30.947Z,68.50
2022-10-01T22:42:37.069Z,68.42
2022-10-01T22:52:42.205Z,67.94
2022-10-01T23:03:06.124Z,67.91
2022-10-01T23:13:37.065Z,67.85
2022-10-01T23:23:42.168Z,67.87
2022-10-01T23:34:09.092Z,67.44
2022-10-01T23:44:36.616Z,66.72
2022-10-01T23:54:46.142Z,67.20
